createdAt,value
2023-03-12T01:46:36.597Z,10.53
2023-03-12T01:49:15.125Z,10.52
2023-03-12T01:51:51.407Z,10.52
2023-03-12T01:54:24.061Z,10.50
2023-03-12T01:56:54.763Z,10.48
2023-03-12T01:59:47.723Z,10.47
2023-03-12T02:02:15.527Z,10.47
2023-03-12T02:04:42.978Z,10.47
2023-03-12T02:07:11.939Z,10.45
2023-03-12T02:09:51.011Z,10.43
2023-03-12T02:12:18.442Z,10.40
2023-03-12T02:14:47.888Z,10.39
2023-03-12T02:17:17.568Z,10.37
2023-03-12T02:20:17.882Z,10.38
2023-03-12T02:22:49.397Z,10.38
2023-03-12T02:25:42.320Z,10.39
2023-03-12T02:28:13.239Z,10.39
2023-03-12T02:30:48.579Z,10.37
2023-03-12T02:33:23.909Z,10.35
2023-03-12T02:35:52.635Z,10.32
2023-03-12T02:38:35.449Z,10.30
2023-03-12T02:41:13.881Z,10.28
2023-03-12T02:43:46.008Z,10.27
2023-03-12T02:46:13.469Z,10.28
2023-03-12T02:48:40.649Z,10.28
2023-03-12T02:51:07.586Z,10.27
2023-03-12T02:53:34.914Z,10.26
2023-03-12T02:56:04.691Z,10.24
2023-03-12T02:58:35.794Z,10.23
2023-03-12T03:01:07.161Z,10.23
2023-03-12T03:03:34.491Z,10.23
2023-03-12T03:06:01.426Z,10.21
2023-03-12T03:08:35.003Z,10.22
2023-03-12T03:11:03.031Z,10.21
2023-03-12T03:13:30.361Z,10.18
2023-03-12T03:16:00.203Z,10.15
2023-03-12T03:18:29.376Z,10.14
2023-03-12T03:20:57.830Z,10.15
2023-03-12T03:23:26.856Z,10.15
2023-03-12T03:25:54.171Z,10.13
2023-03-12T03:28:24.458Z,10.10
2023-03-12T03:31:07.268Z,10.04
2023-03-12T03:33:38.170Z,10.02
2023-03-12T03:36:06.779Z,9.97
2023-03-12T03:38:43.879Z,9.92
2023-03-12T03:41:18.771Z,9.90
2023-03-12T03:43:47.506Z,9.89
2023-03-12T03:46:17.791Z,9.89
2023-03-12T03:48:51.047Z,9.89
2023-03-12T03:51:26.227Z,9.87
2023-03-12T03:54:03.187Z,9.85
2023-03-12T03:56:32.236Z,9.82
2023-03-12T04:01:56.710Z,9.76
2023-03-12T04:04:29.852Z,9.73
2023-03-12T04:07:35.681Z,9.71
2023-03-12T04:10:31.447Z,9.69
2023-03-12T04:13:12.667Z,9.69
2023-03-12T04:15:51.051Z,9.69
2023-03-12T04:18:33.562Z,9.69
2023-03-12T04:21:04.056Z,9.68
2023-03-12T04:23:32.533Z,9.67
2023-03-12T04:28:52.550Z,9.64
2023-03-12T04:31:20.994Z,9.66
2023-03-12T04:33:55.433Z,9.68
2023-03-12T04:36:45.931Z,9.69
2023-03-12T04:39:42.984Z,9.70
2023-03-12T04:42:53.460Z,9.71
2023-03-12T04:45:35.355Z,9.74
2023-03-12T04:48:33.438Z,9.78
2023-03-12T04:51:07.632Z,9.83
2023-03-12T04:53:36.542Z,9.85
2023-03-12T04:56:30.099Z,9.84
2023-03-12T04:59:11.885Z,9.83
2023-03-12T05:01:47.146Z,9.83
2023-03-12T05:04:27.354Z,9.85
2023-03-12T05:07:07.620Z,9.87
2023-03-12T05:09:45.046Z,9.90
2023-03-12T05:12:17.917Z,9.87
2023-03-12T05:15:31.278Z,9.87
2023-03-12T05:18:22.008Z,9.86
2023-03-12T05:24:58.952Z,9.89
2023-03-12T05:28:03.745Z,9.96
2023-03-12T05:30:36.893Z,10.02
2023-03-12T05:33:05.507Z,10.07
2023-03-12T05:35:39.898Z,10.09
2023-03-12T05:38:12.097Z,10.11
2023-03-12T05:43:26.773Z,10.09
2023-03-12T05:46:10.184Z,10.04
2023-03-12T05:48:38.602Z,9.98
2023-03-12T05:53:53.955Z,9.85
2023-03-12T05:56:21.306Z,9.78
2023-03-12T05:58:49.683Z,9.71
2023-03-12T06:01:28.603Z,9.64
2023-03-12T06:04:25.263Z,9.60
2023-03-12T06:07:27.141Z,9.48
2023-03-12T06:11:14.678Z,9.30
2023-03-12T06:13:50.208Z,9.19
2023-03-12T06:17:31.165Z,9.06
2023-03-12T06:19:59.140Z,8.92
2023-03-12T06:22:38.860Z,8.86
2023-03-12T06:25:10.153Z,8.83
2023-03-12T06:27:39.736Z,8.78
2023-03-12T06:30:08.857Z,8.71
2023-03-12T06:32:36.966Z,8.69
2023-03-12T06:35:07.182Z,8.65
2023-03-12T06:37:35.714Z,8.57
2023-03-12T06:40:12.809Z,8.49
2023-03-12T06:42:54.283Z,8.42
2023-03-12T06:45:23.480Z,8.42
2023-03-12T06:47:55.133Z,8.41
2023-03-12T06:50:24.815Z,8.42
2023-03-12T06:52:52.342Z,8.44
2023-03-12T06:55:21.680Z,8.48
2023-03-12T07:04:17.801Z,8.86
2023-03-12T07:10:14.192Z,8.81
2023-03-12T07:12:57.226Z,8.76
2023-03-12T07:15:35.931Z,8.74
2023-03-12T07:18:10.414Z,8.73
2023-03-12T07:20:43.084Z,8.64
2023-03-12T07:23:12.046Z,8.55
2023-03-12T07:26:05.768Z,8.46
2023-03-12T07:31:19.216Z,8.35
2023-03-12T07:36:39.494Z,8.29
2023-03-12T07:39:15.741Z,8.27
2023-03-12T07:44:38.601Z,8.23
2023-03-12T07:47:22.555Z,8.24
2023-03-12T07:50:12.481Z,8.22
2023-03-12T07:52:46.992Z,8.16
2023-03-12T07:55:26.716Z,8.11
2023-03-12T07:58:09.696Z,8.02
2023-03-12T08:00:44.986Z,7.91
2023-03-12T08:03:15.576Z,7.83
2023-03-12T08:06:33.675Z,7.78
2023-03-12T08:09:02.881Z,8.05
2023-03-12T08:11:59.698Z,8.39
2023-03-12T08:14:46.631Z,8.66
2023-03-12T08:17:29.253Z,8.76
2023-03-12T08:20:14.700Z,8.89
2023-03-12T08:22:47.637Z,9.05
2023-03-12T08:25:23.818Z,9.14
2023-03-12T08:27:51.664Z,9.16
2023-03-12T08:30:18.954Z,9.20
2023-03-12T08:32:53.552Z,9.37
2023-03-12T08:35:30.710Z,9.77
2023-03-12T08:42:01.537Z,10.52
2023-03-12T08:44:42.159Z,10.31
2023-03-12T08:47:12.416Z,10.06
2023-03-12T08:55:42.994Z,9.77
2023-03-12T09:15:04.561Z,8.54
2023-03-12T09:18:18.117Z,8.48
2023-03-12T09:21:02.127Z,8.39
2023-03-12T09:23:46.855Z,8.24
2023-03-12T13:31:58.895Z,4.07
2023-03-12T14:40:47.578Z,3.78
2023-03-12T21:48:44.367Z,2.18
2023-03-12T22:20:38.373Z,1.60
2023-03-12T22:23:18.862Z,1.58
2023-03-12T22:25:49.242Z,1.60
2023-03-12T22:28:19.601Z,1.63
2023-03-12T22:30:49.112Z,1.63
2023-03-12T22:33:17.885Z,1.61
2023-03-12T22:35:47.851Z,1.60
2023-03-12T22:38:18.788Z,1.60
2023-03-12T22:40:55.489Z,1.57
2023-03-12T22:43:27.816Z,1.52
2023-03-12T22:45:58.683Z,1.50
2023-03-12T22:48:29.052Z,1.51
2023-03-12T22:50:58.401Z,1.51
2023-03-12T22:53:33.655Z,1.51
2023-03-12T22:56:05.012Z,1.54
2023-03-12T22:58:35.958Z,1.57
2023-03-12T23:03:57.481Z,1.63
2023-03-12T23:06:27.668Z,1.62
2023-03-12T23:08:56.979Z,1.62
2023-03-12T23:11:33.048Z,1.61
2023-03-12T23:14:01.854Z,1.58
2023-03-12T23:16:34.584Z,1.55
2023-03-12T23:19:11.523Z,1.55
2023-03-12T23:21:42.446Z,1.53
2023-03-12T23:24:16.238Z,1.54
2023-03-12T23:26:47.281Z,1.56
2023-03-12T23:29:16.278Z,1.60
2023-03-12T23:31:45.286Z,1.63
2023-03-12T23:34:14.319Z,1.65
2023-03-12T23:36:48.491Z,1.68
2023-03-12T23:39:17.698Z,1.69
2023-03-12T23:41:46.924Z,1.67
2023-03-12T23:44:18.641Z,1.64
2023-03-12T23:46:48.148Z,1.61
2023-03-12T23:52:34.552Z,1.57
2023-03-12T23:55:08.275Z,1.56
2023-03-12T23:57:42.486Z,1.55
